Time;durP1;ratioP1;P1;durP2;ratioP2;P2;SDS_P1;SDS_P2;PMS_P1;PMS_P2;Temp;Humidity;BMP_temperature;BMP_pressure;BME280_temperature;BME280_humidity;BME280_pressure;Samples;Min_cycle;Max_cycle;Signal;HPM_P1;HPM_P2
2022/03/08 00:00:28;;;;;;;13.33;7.00;;;;;;;;;;5027283;28;20301;-68
2022/03/08 00:02:57;;;;;;;11.73;6.07;;;;;;;;;;5023498;28;20193;-67
2022/03/08 00:05:23;;;;;;;12.50;6.00;;;;;;;;;;5027640;28;20194;-68
2022/03/08 00:07:50;;;;;;;12.73;6.33;;;;;;;;;;5033591;28;20567;-68
2022/03/08 00:10:16;;;;;;;11.17;5.70;;;;;;;;;;5026294;28;20321;-68
2022/03/08 00:12:43;;;;;;;13.27;6.47;;;;;;;;;;5023162;28;20198;-67
2022/03/08 00:15:10;;;;;;;16.27;5.73;;;;;;;;;;5025612;28;20197;-66
2022/03/08 00:17:35;;;;;;;13.63;5.60;;;;;;;;;;5026583;28;20198;-66
2022/03/08 00:20:03;;;;;;;11.83;5.83;;;;;;;;;;5023738;28;20631;-67
2022/03/08 00:22:29;;;;;;;12.17;6.03;;;;;;;;;;5021395;28;20261;-67
2022/03/08 00:24:54;;;;;;;12.73;6.13;;;;;;;;;;5023848;28;20221;-67
2022/03/08 00:27:19;;;;;;;12.10;6.23;;;;;;;;;;5026351;28;20186;-67
2022/03/08 00:29:45;;;;;;;12.47;5.83;;;;;;;;;;5028143;28;20202;-67
2022/03/08 00:32:10;;;;;;;12.47;5.80;;;;;;;;;;5024727;28;20336;-68
2022/03/08 00:34:36;;;;;;;12.93;6.43;;;;;;;;;;5026128;28;20272;-67
2022/03/08 00:37:01;;;;;;;16.03;7.50;;;;;;;;;;5024455;28;20704;-67
2022/03/08 00:39:26;;;;;;;14.50;6.63;;;;;;;;;;5030950;28;20209;-66
2022/03/08 00:41:52;;;;;;;14.80;6.70;;;;;;;;;;5029618;28;20725;-67
2022/03/08 00:44:17;;;;;;;19.03;7.73;;;;;;;;;;5024995;28;20189;-67
2022/03/08 00:46:42;;;;;;;17.63;6.93;;;;;;;;;;5024557;28;20220;-68
2022/03/08 00:49:08;;;;;;;15.50;7.20;;;;;;;;;;5023635;28;20196;-67
2022/03/08 00:51:33;;;;;;;16.10;7.37;;;;;;;;;;5020907;28;20190;-67
2022/03/08 00:53:59;;;;;;;17.13;7.77;;;;;;;;;;5026519;28;20182;-67
2022/03/08 00:56:24;;;;;;;15.43;7.57;;;;;;;;;;5029164;28;20276;-67
2022/03/08 00:58:49;;;;;;;16.43;7.27;;;;;;;;;;5022158;28;20210;-67
2022/03/08 01:01:15;;;;;;;15.03;8.07;;;;;;;;;;5024718;28;20210;-67
2022/03/08 01:03:40;;;;;;;15.77;7.30;;;;;;;;;;5025382;28;20194;-67
2022/03/08 01:06:06;;;;;;;14.90;7.50;;;;;;;;;;5038385;28;20226;-67
2022/03/08 01:08:31;;;;;;;15.27;6.87;;;;;;;;;;5025413;28;20196;-68
2022/03/08 01:10:56;;;;;;;18.03;9.07;;;;;;;;;;5024562;28;20201;-67
2022/03/08 01:13:25;;;;;;;16.67;8.23;;;;;;;;;;5024761;28;20548;-67
2022/03/08 01:15:50;;;;;;;20.90;8.63;;;;;;;;;;5032087;28;20189;-67
2022/03/08 01:18:15;;;;;;;16.50;8.23;;;;;;;;;;5024786;28;20206;-67
2022/03/08 01:20:41;;;;;;;19.10;7.97;;;;;;;;;;5026251;28;20174;-68
2022/03/08 01:23:06;;;;;;;23.23;8.80;;;;;;;;;;5023087;28;20182;-67
2022/03/08 01:25:31;;;;;;;16.83;8.70;;;;;;;;;;5025386;28;20194;-67
2022/03/08 01:27:57;;;;;;;15.73;8.47;;;;;;;;;;5022182;28;20662;-67
2022/03/08 01:30:24;;;;;;;18.30;8.53;;;;;;;;;;5028217;28;20201;-67
2022/03/08 01:32:50;;;;;;;20.57;8.10;;;;;;;;;;5025332;28;20206;-67
2022/03/08 01:35:18;;;;;;;18.40;7.77;;;;;;;;;;5025458;28;20205;-67
2022/03/08 01:37:44;;;;;;;15.77;7.53;;;;;;;;;;5021966;28;20193;-67
2022/03/08 01:40:14;;;;;;;15.97;6.80;;;;;;;;;;5018023;28;20893;-67
2022/03/08 01:42:42;;;;;;;16.40;6.93;;;;;;;;;;5026063;28;20190;-67
2022/03/08 01:45:08;;;;;;;17.40;8.03;;;;;;;;;;5032548;28;20174;-67
2022/03/08 01:47:33;;;;;;;18.10;8.30;;;;;;;;;;5025970;28;20190;-71
2022/03/08 01:49:58;;;;;;;17.30;9.03;;;;;;;;;;5030269;28;20540;-68
2022/03/08 01:52:25;;;;;;;18.83;8.00;;;;;;;;;;5023771;28;20213;-67
2022/03/08 01:54:51;;;;;;;20.27;8.77;;;;;;;;;;5029763;28;20527;-67
2022/03/08 01:57:19;;;;;;;20.30;8.77;;;;;;;;;;5026297;28;20236;-67
2022/03/08 01:59:45;;;;;;;18.63;8.17;;;;;;;;;;5023273;28;20194;-67
2022/03/08 02:02:12;;;;;;;20.87;8.63;;;;;;;;;;5021667;28;20657;-67
2022/03/08 02:04:38;;;;;;;18.80;8.83;;;;;;;;;;5023341;28;20684;-67
2022/03/08 02:07:04;;;;;;;22.73;9.17;;;;;;;;;;5029474;28;20224;-68
2022/03/08 02:09:30;;;;;;;16.70;8.50;;;;;;;;;;5029503;28;20177;-67
2022/03/08 02:11:55;;;;;;;20.00;9.30;;;;;;;;;;5023183;28;20216;-67
2022/03/08 02:14:20;;;;;;;16.37;8.73;;;;;;;;;;5023259;28;20189;-67
2022/03/08 02:16:46;;;;;;;17.93;8.37;;;;;;;;;;5024207;28;20187;-66
2022/03/08 02:19:13;;;;;;;25.07;9.70;;;;;;;;;;5022109;28;20267;-67
2022/03/08 02:21:38;;;;;;;18.53;8.80;;;;;;;;;;5023276;28;20201;-67
2022/03/08 02:24:05;;;;;;;15.97;7.77;;;;;;;;;;5022413;28;20182;-67
2022/03/08 02:26:31;;;;;;;19.27;8.40;;;;;;;;;;5025536;28;20198;-67
2022/03/08 02:28:58;;;;;;;18.93;9.07;;;;;;;;;;5020338;28;20645;-67
2022/03/08 02:31:24;;;;;;;21.43;9.93;;;;;;;;;;5017485;28;20213;-66
2022/03/08 02:33:49;;;;;;;16.27;8.70;;;;;;;;;;5027022;28;20186;-70
2022/03/08 02:36:14;;;;;;;21.30;9.73;;;;;;;;;;5028165;28;20258;-67
2022/03/08 02:38:40;;;;;;;19.63;9.67;;;;;;;;;;5021186;28;20199;-67
2022/03/08 02:41:06;;;;;;;21.97;9.83;;;;;;;;;;5019960;28;20658;-67
2022/03/08 02:43:31;;;;;;;19.80;8.53;;;;;;;;;;5022417;28;20190;-68
2022/03/08 02:45:56;;;;;;;21.60;10.03;;;;;;;;;;5016866;28;20198;-67
2022/03/08 02:48:25;;;;;;;22.60;9.03;;;;;;;;;;5024188;28;20205;-67
2022/03/08 02:50:50;;;;;;;22.13;9.53;;;;;;;;;;5023376;28;20182;-67
2022/03/08 02:53:16;;;;;;;20.87;9.67;;;;;;;;;;5022052;28;20613;-67
2022/03/08 02:55:41;;;;;;;20.70;9.10;;;;;;;;;;5023657;28;20186;-67
2022/03/08 02:58:07;;;;;;;20.30;9.70;;;;;;;;;;5021371;28;20312;-67
2022/03/08 03:00:33;;;;;;;27.77;9.73;;;;;;;;;;5016775;28;20217;-67
2022/03/08 03:02:59;;;;;;;20.13;9.47;;;;;;;;;;5025551;28;20288;-67
2022/03/08 03:05:24;;;;;;;22.07;10.40;;;;;;;;;;5025860;28;20724;-67
2022/03/08 03:07:50;;;;;;;18.83;9.30;;;;;;;;;;5020147;28;20240;-67
2022/03/08 03:10:20;;;;;;;17.73;9.30;;;;;;;;;;5019546;28;20224;-67
2022/03/08 03:12:47;;;;;;;20.37;8.93;;;;;;;;;;5020466;28;20285;-67
2022/03/08 03:15:13;;;;;;;23.63;10.00;;;;;;;;;;5014749;28;20193;-67
2022/03/08 03:17:39;;;;;;;18.93;9.23;;;;;;;;;;5023410;28;20271;-67
2022/03/08 03:20:07;;;;;;;19.20;9.13;;;;;;;;;;5020363;28;20659;-67
2022/03/08 03:22:33;;;;;;;20.70;9.33;;;;;;;;;;5023993;28;20193;-67
2022/03/08 03:24:58;;;;;;;23.23;9.33;;;;;;;;;;5020390;28;20268;-67
2022/03/08 03:27:23;;;;;;;20.27;9.83;;;;;;;;;;5022680;28;20201;-67
2022/03/08 03:29:49;;;;;;;22.53;9.60;;;;;;;;;;5024982;28;20185;-67
2022/03/08 03:32:14;;;;;;;20.53;9.87;;;;;;;;;;5024306;28;20259;-67
2022/03/08 03:34:40;;;;;;;19.23;9.40;;;;;;;;;;5034863;28;20319;-67
2022/03/08 03:37:05;;;;;;;20.90;9.40;;;;;;;;;;5025946;28;20189;-67
2022/03/08 03:39:31;;;;;;;20.70;9.70;;;;;;;;;;5027378;28;20197;-66
2022/03/08 03:41:56;;;;;;;25.57;11.00;;;;;;;;;;5022673;28;20194;-67
2022/03/08 03:44:21;;;;;;;23.47;9.57;;;;;;;;;;5034994;28;20734;-67
2022/03/08 03:46:47;;;;;;;21.13;9.70;;;;;;;;;;5024923;28;20605;-67
2022/03/08 03:49:12;;;;;;;18.60;9.00;;;;;;;;;;5033039;28;20651;-67
2022/03/08 03:51:38;;;;;;;24.33;9.53;;;;;;;;;;5027630;28;20646;-67
2022/03/08 03:54:03;;;;;;;17.90;9.53;;;;;;;;;;5028712;28;20186;-67
2022/03/08 03:56:28;;;;;;;20.37;9.13;;;;;;;;;;5024960;28;20216;-67
2022/03/08 03:58:54;;;;;;;24.07;10.60;;;;;;;;;;5030203;28;20229;-67
2022/03/08 04:01:19;;;;;;;25.53;10.03;;;;;;;;;;5021213;28;20312;-72
2022/03/08 04:03:44;;;;;;;22.27;9.80;;;;;;;;;;5022816;28;20656;-67
2022/03/08 04:06:09;;;;;;;25.33;10.33;;;;;;;;;;5022387;28;20629;-67
2022/03/08 04:08:35;;;;;;;22.30;9.87;;;;;;;;;;5017362;28;20266;-67
2022/03/08 04:11:01;;;;;;;21.90;10.10;;;;;;;;;;5013529;28;20527;-67
2022/03/08 04:13:26;;;;;;;21.53;9.80;;;;;;;;;;5025380;28;20186;-66
2022/03/08 04:15:52;;;;;;;23.80;9.57;;;;;;;;;;5021774;28;20278;-67
2022/03/08 04:18:18;;;;;;;23.13;10.13;;;;;;;;;;5025367;28;20225;-67
2022/03/08 04:20:44;;;;;;;24.80;9.93;;;;;;;;;;5021264;28;20221;-67
2022/03/08 04:23:09;;;;;;;24.60;9.90;;;;;;;;;;5022338;28;20277;-68
2022/03/08 04:25:35;;;;;;;22.27;9.90;;;;;;;;;;5023943;28;20309;-67
2022/03/08 04:28:02;;;;;;;25.07;10.63;;;;;;;;;;5030480;28;20178;-67
2022/03/08 04:30:28;;;;;;;22.60;10.10;;;;;;;;;;5035564;28;20209;-67
2022/03/08 04:32:54;;;;;;;26.27;10.27;;;;;;;;;;5030662;28;20202;-67
2022/03/08 04:35:19;;;;;;;25.90;10.53;;;;;;;;;;5035003;28;20193;-67
2022/03/08 04:37:45;;;;;;;24.87;10.90;;;;;;;;;;5030861;28;20209;-67
2022/03/08 04:40:11;;;;;;;25.60;10.73;;;;;;;;;;5030874;28;20217;-67
2022/03/08 04:42:37;;;;;;;25.60;10.57;;;;;;;;;;5025009;28;20206;-67
2022/03/08 04:45:03;;;;;;;24.23;10.93;;;;;;;;;;5027111;28;20240;-67
2022/03/08 04:47:29;;;;;;;26.13;11.60;;;;;;;;;;5024925;28;20209;-66
2022/03/08 04:49:54;;;;;;;23.83;11.47;;;;;;;;;;5039216;28;20261;-66
2022/03/08 04:52:19;;;;;;;26.93;12.13;;;;;;;;;;5025115;28;20297;-66
2022/03/08 04:54:45;;;;;;;23.83;10.67;;;;;;;;;;5028584;28;20190;-67
2022/03/08 04:57:10;;;;;;;26.67;11.57;;;;;;;;;;5024012;28;20190;-66
2022/03/08 04:59:35;;;;;;;30.67;12.13;;;;;;;;;;5028672;28;20262;-67
2022/03/08 05:02:01;;;;;;;27.43;10.63;;;;;;;;;;5023468;28;20229;-66
2022/03/08 05:04:26;;;;;;;27.50;11.77;;;;;;;;;;5026456;28;20264;-67
2022/03/08 05:06:52;;;;;;;28.27;10.97;;;;;;;;;;5024360;28;20229;-67
2022/03/08 05:09:17;;;;;;;22.80;10.80;;;;;;;;;;5015845;28;20698;-67
2022/03/08 05:11:43;;;;;;;28.43;11.73;;;;;;;;;;5025321;28;20197;-67
2022/03/08 05:14:09;;;;;;;25.63;11.00;;;;;;;;;;5024817;28;20575;-67
2022/03/08 05:16:34;;;;;;;25.03;11.63;;;;;;;;;;5024811;28;20288;-67
2022/03/08 05:18:59;;;;;;;27.97;11.67;;;;;;;;;;5029634;28;20700;-67
2022/03/08 05:21:25;;;;;;;26.43;11.60;;;;;;;;;;5023503;28;20276;-67
2022/03/08 05:23:50;;;;;;;27.13;10.60;;;;;;;;;;5028813;28;20181;-67
2022/03/08 05:26:15;;;;;;;26.77;11.47;;;;;;;;;;5023840;28;20186;-67
2022/03/08 05:28:43;;;;;;;29.37;11.67;;;;;;;;;;5026134;28;20188;-67
2022/03/08 05:31:10;;;;;;;25.83;12.03;;;;;;;;;;5021659;28;20483;-66
2022/03/08 05:33:35;;;;;;;27.10;10.40;;;;;;;;;;5033627;28;20174;-67
2022/03/08 05:36:01;;;;;;;23.60;11.17;;;;;;;;;;5021190;28;20263;-67
2022/03/08 05:38:26;;;;;;;23.07;10.87;;;;;;;;;;5028731;28;20216;-67
2022/03/08 05:40:52;;;;;;;25.93;11.83;;;;;;;;;;5021921;28;20190;-67
2022/03/08 05:43:17;;;;;;;24.90;10.97;;;;;;;;;;5028271;28;20200;-67
2022/03/08 05:45:43;;;;;;;25.77;11.77;;;;;;;;;;5021277;28;20195;-67
2022/03/08 05:48:09;;;;;;;27.40;11.17;;;;;;;;;;5030199;28;20204;-67
2022/03/08 05:50:35;;;;;;;26.50;10.63;;;;;;;;;;5023427;28;20255;-67
2022/03/08 05:53:00;;;;;;;28.37;12.30;;;;;;;;;;5026463;28;20189;-67
2022/03/08 05:55:26;;;;;;;23.23;12.07;;;;;;;;;;5023085;28;20564;-67
2022/03/08 05:57:51;;;;;;;34.37;12.17;;;;;;;;;;5028589;28;20190;-67
2022/03/08 06:00:17;;;;;;;25.73;11.87;;;;;;;;;;5021462;28;20780;-67
2022/03/08 06:02:42;;;;;;;24.47;11.37;;;;;;;;;;5028059;28;20190;-67
2022/03/08 06:05:11;;;;;;;23.23;10.20;;;;;;;;;;5021671;28;20688;-67
2022/03/08 06:07:36;;;;;;;24.53;11.20;;;;;;;;;;5021930;28;20659;-67
2022/03/08 06:10:04;;;;;;;23.10;10.17;;;;;;;;;;5022827;28;20290;-66
2022/03/08 06:12:29;;;;;;;21.23;10.27;;;;;;;;;;5023996;28;20189;-66
2022/03/08 06:14:55;;;;;;;27.67;10.57;;;;;;;;;;5024813;28;20234;-67
2022/03/08 06:17:20;;;;;;;25.50;11.27;;;;;;;;;;5018480;28;20190;-66
2022/03/08 06:19:45;;;;;;;26.27;10.80;;;;;;;;;;5028377;28;20197;-67
2022/03/08 06:22:11;;;;;;;28.97;11.80;;;;;;;;;;5025709;28;20193;-66
2022/03/08 06:24:36;;;;;;;24.73;11.17;;;;;;;;;;5041858;28;20196;-67
2022/03/08 06:27:02;;;;;;;22.20;10.97;;;;;;;;;;5027565;28;20662;-67
2022/03/08 06:29:27;;;;;;;26.53;12.37;;;;;;;;;;5028739;28;20194;-67
2022/03/08 06:31:53;;;;;;;25.03;11.73;;;;;;;;;;5023229;28;20779;-66
2022/03/08 06:34:18;;;;;;;23.60;11.33;;;;;;;;;;5027381;28;20217;-66
2022/03/08 06:36:52;;;;;;;23.08;11.51;;;;;;;;;;4635937;28;10002917;-67
2022/03/08 06:39:18;;;;;;;28.27;11.50;;;;;;;;;;5023142;28;20519;-67
2022/03/08 06:41:44;;;;;;;23.33;11.13;;;;;;;;;;5018567;28;20872;-67
2022/03/08 06:44:09;;;;;;;25.23;11.37;;;;;;;;;;5031058;28;20189;-68
2022/03/08 06:46:35;;;;;;;28.03;11.40;;;;;;;;;;5027288;28;20182;-66
2022/03/08 06:49:00;;;;;;;28.10;11.23;;;;;;;;;;5042478;28;20190;-67
2022/03/08 06:51:26;;;;;;;22.10;10.87;;;;;;;;;;5029730;28;20182;-67
2022/03/08 06:53:52;;;;;;;25.40;10.30;;;;;;;;;;5022900;28;20178;-66
2022/03/08 06:56:17;;;;;;;21.93;10.87;;;;;;;;;;5019512;28;20940;-67
2022/03/08 06:58:43;;;;;;;23.80;10.43;;;;;;;;;;4674229;28;10000377;-67
2022/03/08 07:01:09;;;;;;;24.93;11.00;;;;;;;;;;5017818;28;20255;-67
2022/03/08 07:03:34;;;;;;;22.17;10.87;;;;;;;;;;5019448;28;20352;-67
2022/03/08 07:05:59;;;;;;;22.90;12.30;;;;;;;;;;5021987;28;20256;-67
2022/03/08 07:08:25;;;;;;;24.60;11.03;;;;;;;;;;5021761;28;20630;-67
2022/03/08 07:10:50;;;;;;;22.57;11.17;;;;;;;;;;5023272;28;20221;-67
2022/03/08 07:13:16;;;;;;;23.77;11.63;;;;;;;;;;5022175;28;20455;-67
2022/03/08 07:15:41;;;;;;;20.23;10.40;;;;;;;;;;5023416;28;20417;-67
2022/03/08 07:18:06;;;;;;;21.53;11.23;;;;;;;;;;5018822;28;20224;-67
2022/03/08 07:20:32;;;;;;;20.93;11.13;;;;;;;;;;5022252;28;20177;-68
2022/03/08 07:22:57;;;;;;;20.60;11.27;;;;;;;;;;5015983;28;20242;-67
2022/03/08 07:25:23;;;;;;;20.20;10.17;;;;;;;;;;5023009;28;20553;-67
2022/03/08 07:27:48;;;;;;;21.77;10.97;;;;;;;;;;5018806;28;20196;-67
2022/03/08 07:30:13;;;;;;;18.43;10.13;;;;;;;;;;5020048;28;20182;-67
2022/03/08 07:32:39;;;;;;;20.80;10.90;;;;;;;;;;5019177;28;20621;-67
2022/03/08 07:35:05;;;;;;;21.33;10.90;;;;;;;;;;5019027;28;20189;-67
2022/03/08 07:37:35;;;;;;;18.40;10.00;;;;;;;;;;5018994;28;20190;-68
2022/03/08 07:40:01;;;;;;;21.57;9.97;;;;;;;;;;5015933;28;20233;-67
2022/03/08 07:42:27;;;;;;;17.87;9.80;;;;;;;;;;5023580;28;20182;-68
2022/03/08 07:44:53;;;;;;;18.57;10.30;;;;;;;;;;5022867;28;20181;-68
2022/03/08 07:47:18;;;;;;;19.23;9.77;;;;;;;;;;5025675;28;20186;-68
2022/03/08 07:49:44;;;;;;;16.67;10.07;;;;;;;;;;5020742;28;20617;-68
2022/03/08 07:52:09;;;;;;;20.47;10.03;;;;;;;;;;5018585;28;20644;-67
2022/03/08 07:54:35;;;;;;;16.43;9.20;;;;;;;;;;5022379;28;20182;-67
2022/03/08 07:57:00;;;;;;;16.33;9.63;;;;;;;;;;5024688;28;20186;-67
2022/03/08 07:59:26;;;;;;;16.50;9.27;;;;;;;;;;5024297;28;20205;-67
2022/03/08 08:01:51;;;;;;;16.90;9.23;;;;;;;;;;5043383;28;20190;-67
2022/03/08 08:04:16;;;;;;;14.70;9.03;;;;;;;;;;5028046;28;20228;-67
2022/03/08 08:06:42;;;;;;;16.30;8.10;;;;;;;;;;5025255;28;20321;-67
2022/03/08 08:09:07;;;;;;;13.87;8.70;;;;;;;;;;5024504;28;20609;-67
2022/03/08 08:11:33;;;;;;;14.83;7.93;;;;;;;;;;5028009;28;20195;-67
2022/03/08 08:13:58;;;;;;;14.80;8.23;;;;;;;;;;5031407;28;20198;-67
2022/03/08 08:16:24;;;;;;;13.20;8.07;;;;;;;;;;5027389;28;20186;-67
2022/03/08 08:18:50;;;;;;;15.30;8.37;;;;;;;;;;5024400;28;20278;-67
2022/03/08 08:21:15;;;;;;;14.37;8.10;;;;;;;;;;5029210;28;20229;-67
2022/03/08 08:23:41;;;;;;;11.67;7.50;;;;;;;;;;5027297;28;22083;-67
2022/03/08 08:26:06;;;;;;;15.20;7.70;;;;;;;;;;5028587;28;20659;-67
2022/03/08 08:28:32;;;;;;;15.57;8.50;;;;;;;;;;5027547;28;20185;-67
2022/03/08 08:30:57;;;;;;;14.13;7.60;;;;;;;;;;5025803;28;20205;-67
2022/03/08 08:33:22;;;;;;;12.77;7.73;;;;;;;;;;5033068;28;20186;-67
2022/03/08 08:35:48;;;;;;;13.23;7.43;;;;;;;;;;5022634;28;20616;-67
2022/03/08 08:38:13;;;;;;;12.60;7.63;;;;;;;;;;5027471;28;20183;-67
2022/03/08 08:40:39;;;;;;;14.57;7.20;;;;;;;;;;5022996;28;20542;-67
2022/03/08 08:43:05;;;;;;;10.57;6.23;;;;;;;;;;5029804;28;20183;-67
2022/03/08 08:45:31;;;;;;;10.57;6.60;;;;;;;;;;5023613;28;20265;-67
2022/03/08 08:47:57;;;;;;;11.20;7.03;;;;;;;;;;5027157;28;20193;-67
2022/03/08 08:50:22;;;;;;;11.17;6.50;;;;;;;;;;5025674;28;20177;-68
2022/03/08 08:52:47;;;;;;;9.80;6.37;;;;;;;;;;5027295;28;20209;-67
2022/03/08 08:55:13;;;;;;;10.50;6.47;;;;;;;;;;5027626;28;20763;-68
2022/03/08 08:57:38;;;;;;;10.93;6.23;;;;;;;;;;5018003;28;20197;-67
2022/03/08 09:00:06;;;;;;;11.57;6.47;;;;;;;;;;5024192;28;20197;-69
2022/03/08 09:02:31;;;;;;;10.83;6.27;;;;;;;;;;5028996;28;20540;-67
2022/03/08 09:04:57;;;;;;;9.20;5.60;;;;;;;;;;5020164;28;20197;-66
2022/03/08 09:07:22;;;;;;;9.67;5.93;;;;;;;;;;5027499;28;20656;-67
2022/03/08 09:09:49;;;;;;;8.80;5.73;;;;;;;;;;5023430;28;20225;-67
2022/03/08 09:12:14;;;;;;;10.33;6.07;;;;;;;;;;5028635;28;20225;-67
2022/03/08 09:14:40;;;;;;;8.53;5.30;;;;;;;;;;5027372;28;20272;-67
2022/03/08 09:17:05;;;;;;;8.87;5.80;;;;;;;;;;5029342;28;20264;-67
2022/03/08 09:19:30;;;;;;;8.73;5.20;;;;;;;;;;5027202;28;20282;-67
2022/03/08 09:21:55;;;;;;;8.37;5.70;;;;;;;;;;5025449;28;20271;-67
2022/03/08 09:24:21;;;;;;;10.80;5.40;;;;;;;;;;5018346;28;20170;-68
2022/03/08 09:26:46;;;;;;;10.87;5.60;;;;;;;;;;5027108;28;20190;-68
2022/03/08 09:29:12;;;;;;;8.60;5.70;;;;;;;;;;5037779;28;20209;-67
2022/03/08 09:31:37;;;;;;;11.10;5.80;;;;;;;;;;5024370;28;20217;-67
2022/03/08 09:34:02;;;;;;;10.87;5.87;;;;;;;;;;5027700;28;20307;-67
2022/03/08 09:36:28;;;;;;;9.37;5.20;;;;;;;;;;5026026;28;20178;-67
2022/03/08 09:38:53;;;;;;;8.87;5.13;;;;;;;;;;5030064;28;20202;-68
2022/03/08 09:41:20;;;;;;;6.73;4.77;;;;;;;;;;5019175;28;20182;-67
2022/03/08 09:43:46;;;;;;;7.23;5.13;;;;;;;;;;5023390;28;20407;-67
2022/03/08 09:46:11;;;;;;;8.27;4.83;;;;;;;;;;5024184;28;20181;-67
2022/03/08 09:48:37;;;;;;;6.30;4.83;;;;;;;;;;5019807;28;20189;-67
2022/03/08 09:51:04;;;;;;;7.07;4.63;;;;;;;;;;5026324;28;20223;-67
2022/03/08 09:53:30;;;;;;;7.93;4.90;;;;;;;;;;5024025;28;20610;-67
2022/03/08 09:56:00;;;;;;;7.17;5.30;;;;;;;;;;5024628;28;20693;-67
2022/03/08 09:58:25;;;;;;;8.80;5.33;;;;;;;;;;5018031;28;20261;-67
2022/03/08 10:00:55;;;;;;;7.07;4.60;;;;;;;;;;5026360;28;20209;-68
2022/03/08 10:03:32;;;;;;;9.03;5.13;;;;;;;;;;5027602;28;20238;-67
2022/03/08 10:05:58;;;;;;;7.90;4.97;;;;;;;;;;5026039;28;20229;-67
2022/03/08 10:08:26;;;;;;;6.73;4.67;;;;;;;;;;5021875;28;20817;-67
2022/03/08 10:10:59;;;;;;;8.00;5.10;;;;;;;;;;5029669;28;20223;-67
2022/03/08 10:13:40;;;;;;;6.87;4.90;;;;;;;;;;5022576;28;20182;-67
2022/03/08 10:16:13;;;;;;;6.63;4.20;;;;;;;;;;5025268;28;20177;-67
2022/03/08 10:18:46;;;;;;;6.50;4.50;;;;;;;;;;5023800;28;20723;-67
2022/03/08 10:21:28;;;;;;;8.03;4.80;;;;;;;;;;5023195;28;20252;-67
2022/03/08 10:23:55;;;;;;;7.47;4.60;;;;;;;;;;5025564;28;20258;-67
2022/03/08 10:26:21;;;;;;;7.37;4.53;;;;;;;;;;5026034;28;20186;-67
2022/03/08 10:28:53;;;;;;;6.50;4.40;;;;;;;;;;5026647;28;20255;-67
2022/03/08 10:31:19;;;;;;;6.80;4.47;;;;;;;;;;5019641;28;20205;-66
2022/03/08 10:33:46;;;;;;;7.43;4.60;;;;;;;;;;5025474;28;20185;-67
2022/03/08 10:36:18;;;;;;;11.10;4.77;;;;;;;;;;5020043;28;20605;-68
2022/03/08 10:39:05;;;;;;;5.60;4.10;;;;;;;;;;5034177;28;20263;-67
2022/03/08 10:41:30;;;;;;;7.30;4.18;;;;;;;;;;5021250;28;20178;-67
2022/03/08 10:43:56;;;;;;;5.80;4.20;;;;;;;;;;5022581;28;20244;-67
2022/03/08 10:46:21;;;;;;;7.60;4.70;;;;;;;;;;5020622;28;20193;-68
2022/03/08 10:48:47;;;;;;;7.23;4.20;;;;;;;;;;5023567;28;20201;-67
2022/03/08 10:51:14;;;;;;;5.85;4.55;;;;;;;;;;5021072;28;20308;-67
2022/03/08 10:53:41;;;;;;;8.27;4.72;;;;;;;;;;5023510;28;20336;-67
2022/03/08 10:56:08;;;;;;;7.47;4.40;;;;;;;;;;5022835;28;20637;-67
2022/03/08 10:58:34;;;;;;;7.43;4.43;;;;;;;;;;5019273;28;20601;-67
2022/03/08 11:01:01;;;;;;;6.53;4.77;;;;;;;;;;5023656;28;20193;-68
2022/03/08 11:03:27;;;;;;;7.03;4.90;;;;;;;;;;5023685;28;20273;-67
2022/03/08 11:05:55;;;;;;;8.60;4.43;;;;;;;;;;5022727;28;20337;-67
2022/03/08 11:08:21;;;;;;;6.57;4.32;;;;;;;;;;5020386;28;20412;-68
2022/03/08 11:10:47;;;;;;;10.20;4.78;;;;;;;;;;5030503;28;20260;-67
2022/03/08 11:13:14;;;;;;;7.13;4.50;;;;;;;;;;5021993;28;20273;-66
2022/03/08 11:15:43;;;;;;;6.82;4.50;;;;;;;;;;5017733;28;20208;-66
2022/03/08 11:18:10;;;;;;;5.72;3.97;;;;;;;;;;5023578;28;20553;-67
2022/03/08 11:20:36;;;;;;;6.40;4.45;;;;;;;;;;5023081;28;20250;-67
2022/03/08 11:23:03;;;;;;;6.70;4.38;;;;;;;;;;5023196;28;20189;-67
2022/03/08 11:25:31;;;;;;;5.60;4.28;;;;;;;;;;5030031;28;20557;-67
2022/03/08 11:27:56;;;;;;;5.55;4.20;;;;;;;;;;5020573;28;20190;-67
2022/03/08 11:30:27;;;;;;;8.02;4.00;;;;;;;;;;5027782;28;20516;-67
2022/03/08 11:32:53;;;;;;;8.30;4.35;;;;;;;;;;5020022;28;20625;-67
2022/03/08 11:35:30;;;;;;;8.02;4.13;;;;;;;;;;5028251;28;20281;-68
2022/03/08 11:37:56;;;;;;;4.97;3.97;;;;;;;;;;5024033;28;20680;-67
2022/03/08 11:40:23;;;;;;;6.07;4.32;;;;;;;;;;5023869;28;20205;-67
2022/03/08 11:42:53;;;;;;;7.00;4.05;;;;;;;;;;5031768;28;20197;-68
2022/03/08 11:45:24;;;;;;;5.78;4.20;;;;;;;;;;5029911;28;20186;-67
2022/03/08 11:47:57;;;;;;;6.22;4.10;;;;;;;;;;5028068;28;20598;-67
2022/03/08 11:50:27;;;;;;;7.43;4.30;;;;;;;;;;5021086;28;20190;-67
2022/03/08 11:53:05;;;;;;;6.68;4.18;;;;;;;;;;5017457;28;20301;-67
2022/03/08 11:55:32;;;;;;;4.97;3.92;;;;;;;;;;5021736;28;20677;-67
2022/03/08 11:58:00;;;;;;;6.28;3.83;;;;;;;;;;5022683;28;20227;-66
2022/03/08 12:00:43;;;;;;;6.40;4.20;;;;;;;;;;5022473;28;20190;-67
2022/03/08 12:03:16;;;;;;;5.82;4.10;;;;;;;;;;5027030;28;20278;-67
2022/03/08 12:06:06;;;;;;;5.70;3.70;;;;;;;;;;5026293;28;20226;-66
2022/03/08 12:08:31;;;;;;;5.35;3.63;;;;;;;;;;5019278;28;20190;-67
2022/03/08 12:11:02;;;;;;;6.95;3.90;;;;;;;;;;5036448;28;20609;-66
2022/03/08 12:13:29;;;;;;;5.20;3.88;;;;;;;;;;5018631;28;20571;-69
2022/03/08 12:16:08;;;;;;;7.03;4.18;;;;;;;;;;5025938;28;20197;-66
2022/03/08 12:18:37;;;;;;;6.50;3.90;;;;;;;;;;5024123;28;20558;-68
2022/03/08 12:21:14;;;;;;;5.20;3.75;;;;;;;;;;5024438;28;20178;-67
2022/03/08 12:23:58;;;;;;;7.40;4.03;;;;;;;;;;5018948;28;20190;-66
2022/03/08 12:26:36;;;;;;;6.88;3.63;;;;;;;;;;5024152;28;20269;-67
2022/03/08 12:29:16;;;;;;;6.22;4.28;;;;;;;;;;5023323;28;20209;-68
2022/03/08 12:32:01;;;;;;;5.32;4.15;;;;;;;;;;5015410;28;20250;-67
2022/03/08 12:34:32;;;;;;;5.07;3.80;;;;;;;;;;5013820;28;20194;-68
2022/03/08 12:37:21;;;;;;;6.47;4.10;;;;;;;;;;5021285;28;20653;-68
2022/03/08 12:40:09;;;;;;;6.63;4.03;;;;;;;;;;5017348;28;20254;-68
2022/03/08 12:42:36;;;;;;;7.35;4.30;;;;;;;;;;5023096;28;20181;-67
2022/03/08 12:45:11;;;;;;;5.55;3.78;;;;;;;;;;5029801;28;20532;-68
2022/03/08 12:47:39;;;;;;;4.70;3.58;;;;;;;;;;5029084;28;20201;-67
2022/03/08 12:50:15;;;;;;;5.63;3.95;;;;;;;;;;5033133;28;20529;-68
2022/03/08 12:52:45;;;;;;;5.93;3.88;;;;;;;;;;5026841;28;20241;-67
2022/03/08 12:55:14;;;;;;;5.28;4.00;;;;;;;;;;5026615;28;20240;-67
2022/03/08 12:57:52;;;;;;;6.43;3.90;;;;;;;;;;5027947;28;20177;-68
2022/03/08 13:00:37;;;;;;;6.07;4.30;;;;;;;;;;5023168;28;20681;-67
2022/03/08 13:03:07;;;;;;;6.88;4.03;;;;;;;;;;5032741;28;20502;-66
2022/03/08 13:05:35;;;;;;;4.68;3.60;;;;;;;;;;5024718;28;20228;-67
2022/03/08 13:08:01;;;;;;;4.45;3.60;;;;;;;;;;5026961;28;20190;-67
2022/03/08 13:10:28;;;;;;;6.10;3.83;;;;;;;;;;5027351;28;20178;-68
2022/03/08 13:12:59;;;;;;;5.47;3.60;;;;;;;;;;5029076;28;20658;-68
2022/03/08 13:15:28;;;;;;;8.20;3.47;;;;;;;;;;5025559;28;20186;-67
2022/03/08 13:17:56;;;;;;;5.97;3.80;;;;;;;;;;5028454;28;20182;-66
2022/03/08 13:20:22;;;;;;;5.75;3.75;;;;;;;;;;5026205;28;20644;-66
2022/03/08 13:22:47;;;;;;;8.10;3.50;;;;;;;;;;5028649;28;20186;-67
2022/03/08 13:25:13;;;;;;;5.20;3.78;;;;;;;;;;5028461;28;20190;-67
2022/03/08 13:28:35;;;;;;;6.95;3.70;;;;;;;;;;5026428;28;20186;-67
2022/03/08 13:31:10;;;;;;;6.15;3.70;;;;;;;;;;5034200;28;20221;-67
2022/03/08 13:33:39;;;;;;;6.30;3.83;;;;;;;;;;5023047;28;20613;-67
2022/03/08 13:36:07;;;;;;;5.32;3.70;;;;;;;;;;5021343;28;20545;-67
2022/03/08 13:38:34;;;;;;;7.32;4.00;;;;;;;;;;5018160;28;20183;-67
2022/03/08 13:41:02;;;;;;;5.50;3.63;;;;;;;;;;5029849;28;20196;-67
2022/03/08 13:43:29;;;;;;;4.63;3.72;;;;;;;;;;5018495;28;20183;-67
2022/03/08 13:45:55;;;;;;;4.63;3.63;;;;;;;;;;5028713;28;20205;-67
2022/03/08 13:48:26;;;;;;;6.65;3.80;;;;;;;;;;5020984;28;20226;-66
2022/03/08 13:50:52;;;;;;;7.15;4.05;;;;;;;;;;5019935;28;20224;-67
2022/03/08 13:53:18;;;;;;;4.63;3.63;;;;;;;;;;5027805;28;20190;-67
2022/03/08 13:55:45;;;;;;;6.05;3.92;;;;;;;;;;5020241;28;20605;-67
2022/03/08 13:58:19;;;;;;;8.75;4.38;;;;;;;;;;5020175;28;20202;-67
2022/03/08 14:00:46;;;;;;;4.47;3.50;;;;;;;;;;5023181;28;20201;-67
2022/03/08 14:03:13;;;;;;;7.22;3.65;;;;;;;;;;5036113;28;20179;-67
2022/03/08 14:05:47;;;;;;;4.93;3.45;;;;;;;;;;5026325;28;20194;-67
2022/03/08 14:08:40;;;;;;;9.55;4.45;;;;;;;;;;5034703;28;20193;-67
2022/03/08 14:11:09;;;;;;;6.10;4.03;;;;;;;;;;5029812;28;20173;-67
2022/03/08 14:13:52;;;;;;;6.35;3.75;;;;;;;;;;5033492;28;20873;-67
2022/03/08 14:16:18;;;;;;;7.25;4.15;;;;;;;;;;5037175;28;20241;-66
2022/03/08 14:19:02;;;;;;;5.07;3.63;;;;;;;;;;5028182;28;20551;-67
2022/03/08 14:21:32;;;;;;;6.78;4.07;;;;;;;;;;5037807;28;20193;-67
2022/03/08 14:24:13;;;;;;;5.03;3.45;;;;;;;;;;5024686;28;20214;-67
2022/03/08 14:26:39;;;;;;;5.78;4.18;;;;;;;;;;5038482;28;20197;-68
2022/03/08 14:29:15;;;;;;;5.28;3.75;;;;;;;;;;5025319;28;20193;-67
2022/03/08 14:31:49;;;;;;;5.28;3.88;;;;;;;;;;5033640;28;20217;-67